sensor_id;sensor_type;location;lat;lon;timestamp;pressure;altitude;pressure_sealevel;temperature;humidity
43312;BME280;30041;48.300;16.352;2023-12-20T00:02:22;99660.88;;;21.15;nan
43312;BME280;30041;48.300;16.352;2023-12-20T00:04:50;99667.28;;;21.14;nan
43312;BME280;30041;48.300;16.352;2023-12-20T00:07:16;99655.94;;;21.12;nan
43312;BME280;30041;48.300;16.352;2023-12-20T00:09:41;99664.84;;;21.12;nan
43312;BME280;30041;48.300;16.352;2023-12-20T00:12:07;99660.50;;;21.11;nan
43312;BME280;30041;48.300;16.352;2023-12-20T00:14:35;99665.88;;;21.11;nan
43312;BME280;30041;48.300;16.352;2023-12-20T00:17:01;99660.75;;;21.10;nan
43312;BME280;30041;48.300;16.352;2023-12-20T00:19:27;99645.41;;;21.10;nan
43312;BME280;30041;48.300;16.352;2023-12-20T00:21:52;99644.59;;;21.10;nan
43312;BME280;30041;48.300;16.352;2023-12-20T00:24:18;99642.94;;;21.09;nan
43312;BME280;30041;48.300;16.352;2023-12-20T00:26:43;99648.53;;;21.07;nan
43312;BME280;30041;48.300;16.352;2023-12-20T00:29:09;99645.84;;;21.07;nan
43312;BME280;30041;48.300;16.352;2023-12-20T00:31:34;99643.16;;;21.07;nan
43312;BME280;30041;48.300;16.352;2023-12-20T00:33:59;99645.03;;;21.07;nan
43312;BME280;30041;48.300;16.352;2023-12-20T00:36:25;99654.19;;;21.06;nan
43312;BME280;30041;48.300;16.352;2023-12-20T00:38:50;99646.09;;;21.06;nan
43312;BME280;30041;48.300;16.352;2023-12-20T00:41:16;99645.25;;;21.05;nan
43312;BME280;30041;48.300;16.352;2023-12-20T00:43:42;99629.94;;;21.06;nan
43312;BME280;30041;48.300;16.352;2023-12-20T00:46:08;99643.41;;;21.06;nan
43312;BME280;30041;48.300;16.352;2023-12-20T00:48:39;99634.47;;;21.05;nan
43312;BME280;30041;48.300;16.352;2023-12-20T00:51:04;99630.97;;;21.05;nan
43312;BME280;30041;48.300;16.352;2023-12-20T00:53:30;99642.81;;;21.04;nan
43312;BME280;30041;48.300;16.352;2023-12-20T00:55:55;99647.41;;;21.03;nan
43312;BME280;30041;48.300;16.352;2023-12-20T00:58:24;99640.13;;;21.04;nan
43312;BME280;30041;48.300;16.352;2023-12-20T01:00:50;99639.06;;;21.05;nan
43312;BME280;30041;48.300;16.352;2023-12-20T01:03:15;99638.25;;;21.04;nan
43312;BME280;30041;48.300;16.352;2023-12-20T01:05:41;99645.75;;;21.02;nan
43312;BME280;30041;48.300;16.352;2023-12-20T01:08:06;99643.28;;;21.01;nan
43312;BME280;30041;48.300;16.352;2023-12-20T01:10:35;99632.50;;;21.01;nan
43312;BME280;30041;48.300;16.352;2023-12-20T01:13:00;99622.19;;;20.98;nan
43312;BME280;30041;48.300;16.352;2023-12-20T01:15:25;99623.84;;;20.99;nan
43312;BME280;30041;48.300;16.352;2023-12-20T01:17:54;99624.31;;;20.96;nan
43312;BME280;30041;48.300;16.352;2023-12-20T01:20:19;99621.97;;;20.99;nan
43312;BME280;30041;48.300;16.352;2023-12-20T01:22:45;99613.31;;;20.97;nan
43312;BME280;30041;48.300;16.352;2023-12-20T01:25:11;99609.31;;;21.00;nan
43312;BME280;30041;48.300;16.352;2023-12-20T01:27:36;99607.69;;;20.99;nan
43312;BME280;30041;48.300;16.352;2023-12-20T01:30:02;99601.72;;;20.97;nan
43312;BME280;30041;48.300;16.352;2023-12-20T01:32:27;99602.75;;;20.96;nan
43312;BME280;30041;48.300;16.352;2023-12-20T01:34:53;99603.56;;;20.96;nan
43312;BME280;30041;48.300;16.352;2023-12-20T01:37:19;99602.75;;;20.96;nan
43312;BME280;30041;48.300;16.352;2023-12-20T01:39:44;99589.28;;;20.96;nan
43312;BME280;30041;48.300;16.352;2023-12-20T01:42:10;99593.28;;;20.93;nan
43312;BME280;30041;48.300;16.352;2023-12-20T01:44:36;99589.50;;;20.94;nan
43312;BME280;30041;48.300;16.352;2023-12-20T01:47:02;99592.19;;;20.94;nan
43312;BME280;30041;48.300;16.352;2023-12-20T01:49:27;99594.09;;;20.93;nan
43312;BME280;30041;48.300;16.352;2023-12-20T01:51:54;99588.69;;;20.93;nan
43312;BME280;30041;48.300;16.352;2023-12-20T01:54:20;99587.88;;;20.93;nan
43312;BME280;30041;48.300;16.352;2023-12-20T01:56:46;99577.91;;;20.93;nan
43312;BME280;30041;48.300;16.352;2023-12-20T01:59:12;99569.03;;;20.93;nan
43312;BME280;30041;48.300;16.352;2023-12-20T02:01:38;99569.03;;;20.93;nan
43312;BME280;30041;48.300;16.352;2023-12-20T02:04:04;99553.66;;;20.93;nan
43312;BME280;30041;48.300;16.352;2023-12-20T02:06:30;99547.69;;;20.91;nan
43312;BME280;30041;48.300;16.352;2023-12-20T02:08:57;99527.22;;;20.90;nan
43312;BME280;30041;48.300;16.352;2023-12-20T02:11:23;99525.91;;;20.93;nan
43312;BME280;30041;48.300;16.352;2023-12-20T02:13:49;99512.09;;;20.89;nan
43312;BME280;30041;48.300;16.352;2023-12-20T02:16:14;99515.63;;;20.90;nan
43312;BME280;30041;48.300;16.352;2023-12-20T02:18:45;99506.72;;;20.89;nan
43312;BME280;30041;48.300;16.352;2023-12-20T02:21:10;99493.22;;;20.89;nan
43312;BME280;30041;48.300;16.352;2023-12-20T02:23:36;99500.72;;;20.87;nan
43312;BME280;30041;48.300;16.352;2023-12-20T02:26:05;99497.00;;;20.88;nan
43312;BME280;30041;48.300;16.352;2023-12-20T02:28:31;99489.16;;;20.87;nan
43312;BME280;30041;48.300;16.352;2023-12-20T02:30:57;99478.38;;;20.87;nan
43312;BME280;30041;48.300;16.352;2023-12-20T02:33:28;99471.94;;;20.88;nan
43312;BME280;30041;48.300;16.352;2023-12-20T02:35:53;99484.56;;;20.87;nan
43312;BME280;30041;48.300;16.352;2023-12-20T02:38:19;99482.94;;;20.86;nan
43312;BME280;30041;48.300;16.352;2023-12-20T02:40:45;99474.28;;;20.84;nan
43312;BME280;30041;48.300;16.352;2023-12-20T02:43:10;99480.47;;;20.85;nan
43312;BME280;30041;48.300;16.352;2023-12-20T02:45:39;99484.81;;;20.86;nan
43312;BME280;30041;48.300;16.352;2023-12-20T02:48:08;99473.69;;;20.82;nan
43312;BME280;30041;48.300;16.352;2023-12-20T02:50:33;99472.06;;;20.81;nan
43312;BME280;30041;48.300;16.352;2023-12-20T02:52:59;99478.03;;;20.83;nan
43312;BME280;30041;48.300;16.352;2023-12-20T02:55:25;99462.13;;;20.82;nan
43312;BME280;30041;48.300;16.352;2023-12-20T02:57:56;99468.31;;;20.82;nan
43312;BME280;30041;48.300;16.352;2023-12-20T03:00:21;99469.59;;;20.80;nan
43312;BME280;30041;48.300;16.352;2023-12-20T03:02:47;99477.69;;;20.80;nan
43312;BME280;30041;48.300;16.352;2023-12-20T03:05:13;99472.31;;;20.80;nan
43312;BME280;30041;48.300;16.352;2023-12-20T03:07:38;99465.28;;;20.79;nan
43312;BME280;30041;48.300;16.352;2023-12-20T03:10:04;99473.59;;;20.77;nan
43312;BME280;30041;48.300;16.352;2023-12-20T03:12:30;99466.09;;;20.79;nan
43312;BME280;30041;48.300;16.352;2023-12-20T03:14:58;99465.28;;;20.79;nan
43312;BME280;30041;48.300;16.352;2023-12-20T03:17:24;99472.53;;;20.78;nan
43312;BME280;30041;48.300;16.352;2023-12-20T03:19:49;99460.94;;;20.78;nan
43312;BME280;30041;48.300;16.352;2023-12-20T03:22:15;99470.09;;;20.77;nan
43312;BME280;30041;48.300;16.352;2023-12-20T03:24:40;99465.53;;;20.77;nan
43312;BME280;30041;48.300;16.352;2023-12-20T03:27:06;99467.63;;;20.75;nan
43312;BME280;30041;48.300;16.352;2023-12-20T03:29:31;99471.94;;;20.76;nan
43312;BME280;30041;48.300;16.352;2023-12-20T03:31:57;99469.50;;;20.75;nan
43312;BME280;30041;48.300;16.352;2023-12-20T03:34:22;99463.28;;;20.74;nan
43312;BME280;30041;48.300;16.352;2023-12-20T03:36:48;99460.84;;;20.72;nan
43312;BME280;30041;48.300;16.352;2023-12-20T03:39:13;99460.59;;;20.74;nan
43312;BME280;30041;48.300;16.352;2023-12-20T03:41:38;99457.09;;;20.73;nan
43312;BME280;30041;48.300;16.352;2023-12-20T03:44:04;99454.16;;;20.75;nan
43312;BME280;30041;48.300;16.352;2023-12-20T03:46:30;99452.75;;;20.72;nan
43312;BME280;30041;48.300;16.352;2023-12-20T03:48:55;99443.88;;;20.72;nan
43312;BME280;30041;48.300;16.352;2023-12-20T03:51:20;99450.31;;;20.71;nan
43312;BME280;30041;48.300;16.352;2023-12-20T03:53:46;99458.59;;;20.69;nan
43312;BME280;30041;48.300;16.352;2023-12-20T03:56:12;99461.28;;;20.69;nan
43312;BME280;30041;48.300;16.352;2023-12-20T03:58:37;99452.41;;;20.69;nan
43312;BME280;30041;48.300;16.352;2023-12-20T04:01:03;99453.47;;;20.68;nan
43312;BME280;30041;48.300;16.352;2023-12-20T04:03:28;99451.81;;;20.67;nan
43312;BME280;30041;48.300;16.352;2023-12-20T04:05:56;99450.78;;;20.68;nan
43312;BME280;30041;48.300;16.352;2023-12-20T04:08:21;99453.69;;;20.66;nan
43312;BME280;30041;48.300;16.352;2023-12-20T04:10:47;99455.59;;;20.66;nan
43312;BME280;30041;48.300;16.352;2023-12-20T04:13:13;99457.22;;;20.67;nan
43312;BME280;30041;48.300;16.352;2023-12-20T04:15:38;99452.41;;;20.69;nan
43312;BME280;30041;48.300;16.352;2023-12-20T04:18:04;99457.78;;;20.69;nan
43312;BME280;30041;48.300;16.352;2023-12-20T04:20:29;99457.22;;;20.67;nan
43312;BME280;30041;48.300;16.352;2023-12-20T04:22:55;99458.88;;;20.68;nan
43312;BME280;30041;48.300;16.352;2023-12-20T04:25:21;99454.50;;;20.67;nan
43312;BME280;30041;48.300;16.352;2023-12-20T04:27:46;99443.75;;;20.67;nan
43312;BME280;30041;48.300;16.352;2023-12-20T04:30:12;99436.72;;;20.66;nan
43312;BME280;30041;48.300;16.352;2023-12-20T04:32:37;99430.53;;;20.65;nan
43312;BME280;30041;48.300;16.352;2023-12-20T04:35:03;99431.56;;;20.64;nan
43312;BME280;30041;48.300;16.352;2023-12-20T04:37:28;99431.34;;;20.66;nan
43312;BME280;30041;48.300;16.352;2023-12-20T04:39:54;99428.06;;;20.64;nan
43312;BME280;30041;48.300;16.352;2023-12-20T04:42:19;99443.50;;;20.68;nan
43312;BME280;30041;48.300;16.352;2023-12-20T04:44:45;99441.63;;;20.69;nan
43312;BME280;30041;48.300;16.352;2023-12-20T04:47:10;99436.84;;;20.71;nan
43312;BME280;30041;48.300;16.352;2023-12-20T04:49:36;99434.63;;;20.68;nan
43312;BME280;30041;48.300;16.352;2023-12-20T04:52:01;99432.97;;;20.67;nan
43312;BME280;30041;48.300;16.352;2023-12-20T04:54:27;99442.34;;;20.64;nan
43312;BME280;30041;48.300;16.352;2023-12-20T04:56:52;99443.75;;;20.67;nan
43312;BME280;30041;48.300;16.352;2023-12-20T04:59:20;99434.63;;;20.68;nan
43312;BME280;30041;48.300;16.352;2023-12-20T05:01:46;99426.66;;;20.73;nan
43312;BME280;30041;48.300;16.352;2023-12-20T05:04:11;99415.06;;;20.72;nan
43312;BME280;30041;48.300;16.352;2023-12-20T05:06:37;99424.53;;;20.75;nan
43312;BME280;30041;48.300;16.352;2023-12-20T05:09:02;99422.44;;;20.77;nan
43312;BME280;30041;48.300;16.352;2023-12-20T05:11:30;99429.44;;;20.78;nan
43312;BME280;30041;48.300;16.352;2023-12-20T05:13:56;99422.19;;;20.79;nan
43312;BME280;30041;48.300;16.352;2023-12-20T05:16:21;99419.25;;;20.80;nan
43312;BME280;30041;48.300;16.352;2023-12-20T05:18:48;99419.81;;;20.82;nan
43312;BME280;30041;48.300;16.352;2023-12-20T05:21:14;99416.09;;;20.83;nan
43312;BME280;30041;48.300;16.352;2023-12-20T05:23:40;99424.19;;;20.83;nan
43312;BME280;30041;48.300;16.352;2023-12-20T05:26:05;99416.91;;;20.84;nan
43312;BME280;30041;48.300;16.352;2023-12-20T05:28:31;99416.09;;;20.83;nan
43312;BME280;30041;48.300;16.352;2023-12-20T05:30:56;99434.69;;;20.85;nan
43312;BME280;30041;48.300;16.352;2023-12-20T05:33:22;99433.66;;;20.86;nan
43312;BME280;30041;48.300;16.352;2023-12-20T05:35:47;99438.78;;;20.87;nan
43312;BME280;30041;48.300;16.352;2023-12-20T05:38:13;99456.59;;;20.88;nan
43312;BME280;30041;48.300;16.352;2023-12-20T05:40:38;99447.44;;;20.89;nan
43312;BME280;30041;48.300;16.352;2023-12-20T05:43:04;99440.44;;;20.88;nan
43312;BME280;30041;48.300;16.352;2023-12-20T05:45:32;99443.13;;;20.88;nan
43312;BME280;30041;48.300;16.352;2023-12-20T05:47:57;99433.97;;;20.89;nan
43312;BME280;30041;48.300;16.352;2023-12-20T05:50:23;99432.13;;;20.90;nan
43312;BME280;30041;48.300;16.352;2023-12-20T05:52:49;99445.59;;;20.90;nan
43312;BME280;30041;48.300;16.352;2023-12-20T05:55:14;99452.81;;;20.89;nan
43312;BME280;30041;48.300;16.352;2023-12-20T05:57:39;99461.50;;;20.91;nan
43312;BME280;30041;48.300;16.352;2023-12-20T06:00:05;99450.72;;;20.91;nan
43312;BME280;30041;48.300;16.352;2023-12-20T06:02:31;99456.09;;;20.91;nan
43312;BME280;30041;48.300;16.352;2023-12-20T06:04:56;99446.16;;;20.92;nan
43312;BME280;30041;48.300;16.352;2023-12-20T06:07:22;99439.13;;;20.91;nan
43312;BME280;30041;48.300;16.352;2023-12-20T06:09:47;99441.59;;;20.92;nan
43312;BME280;30041;48.300;16.352;2023-12-20T06:12:13;99441.59;;;20.92;nan
43312;BME280;30041;48.300;16.352;2023-12-20T06:14:38;99445.69;;;20.95;nan
43312;BME280;30041;48.300;16.352;2023-12-20T06:17:04;99445.69;;;20.95;nan
43312;BME280;30041;48.300;16.352;2023-12-20T06:19:29;99435.72;;;20.96;nan
43312;BME280;30041;48.300;16.352;2023-12-20T06:21:54;99441.09;;;20.96;nan
43312;BME280;30041;48.300;16.352;2023-12-20T06:24:23;99431.97;;;20.97;nan
43312;BME280;30041;48.300;16.352;2023-12-20T06:26:51;99431.97;;;20.97;nan
43312;BME280;30041;48.300;16.352;2023-12-20T06:29:17;99436.53;;;20.96;nan
43312;BME280;30041;48.300;16.352;2023-12-20T06:31:45;99429.03;;;20.98;nan
43312;BME280;30041;48.300;16.352;2023-12-20T06:34:11;99450.59;;;20.98;nan
43312;BME280;30041;48.300;16.352;2023-12-20T06:36:36;99452.25;;;20.99;nan
43312;BME280;30041;48.300;16.352;2023-12-20T06:39:02;99451.44;;;20.99;nan
43312;BME280;30041;48.300;16.352;2023-12-20T06:41:27;99460.06;;;21.01;nan
43312;BME280;30041;48.300;16.352;2023-12-20T06:43:53;99456.31;;;21.02;nan
43312;BME280;30041;48.300;16.352;2023-12-20T06:46:18;99446.34;;;21.02;nan
43312;BME280;30041;48.300;16.352;2023-12-20T06:48:44;99440.97;;;21.02;nan
43312;BME280;30041;48.300;16.352;2023-12-20T06:51:16;99441.19;;;21.01;nan
43312;BME280;30041;48.300;16.352;2023-12-20T06:53:42;99451.53;;;21.04;nan
43312;BME280;30041;48.300;16.352;2023-12-20T06:56:07;99439.09;;;21.03;nan
43312;BME280;30041;48.300;16.352;2023-12-20T06:58:33;99424.56;;;21.04;nan
43312;BME280;30041;48.300;16.352;2023-12-20T07:00:58;99422.69;;;21.04;nan
43312;BME280;30041;48.300;16.352;2023-12-20T07:03:24;99442.38;;;21.05;nan
43312;BME280;30041;48.300;16.352;2023-12-20T07:05:49;99442.38;;;21.05;nan
43312;BME280;30041;48.300;16.352;2023-12-20T07:08:15;99445.88;;;21.05;nan
43312;BME280;30041;48.300;16.352;2023-12-20T07:10:44;99436.97;;;21.05;nan
43312;BME280;30041;48.300;16.352;2023-12-20T07:13:09;99449.41;;;21.06;nan
43312;BME280;30041;48.300;16.352;2023-12-20T07:15:38;99459.13;;;21.07;nan
43312;BME280;30041;48.300;16.352;2023-12-20T07:18:03;99474.25;;;21.08;nan
43312;BME280;30041;48.300;16.352;2023-12-20T07:20:29;99469.88;;;21.07;nan
43312;BME280;30041;48.300;16.352;2023-12-20T07:22:55;99483.94;;;21.09;nan
43312;BME280;30041;48.300;16.352;2023-12-20T07:25:20;99489.34;;;21.09;nan
43312;BME280;30041;48.300;16.352;2023-12-20T07:27:46;99485.03;;;21.08;nan
43312;BME280;30041;48.300;16.352;2023-12-20T07:30:12;99483.94;;;21.09;nan
43312;BME280;30041;48.300;16.352;2023-12-20T07:32:37;99480.44;;;21.08;nan
43312;BME280;30041;48.300;16.352;2023-12-20T07:35:03;99474.25;;;21.08;nan
43312;BME280;30041;48.300;16.352;2023-12-20T07:37:32;99472.34;;;21.08;nan
43312;BME280;30041;48.300;16.352;2023-12-20T07:39:57;99478.56;;;21.09;nan
43312;BME280;30041;48.300;16.352;2023-12-20T07:42:23;99489.34;;;21.09;nan
43312;BME280;30041;48.300;16.352;2023-12-20T07:44:48;99480.22;;;21.10;nan
43312;BME280;30041;48.300;16.352;2023-12-20T07:47:14;99488.28;;;21.10;nan
43312;BME280;30041;48.300;16.352;2023-12-20T07:49:39;99490.16;;;21.09;nan
43312;BME280;30041;48.300;16.352;2023-12-20T07:52:05;99475.63;;;21.10;nan
43312;BME280;30041;48.300;16.352;2023-12-20T07:54:33;99486.41;;;21.10;nan
43312;BME280;30041;48.300;16.352;2023-12-20T07:56:59;99493.69;;;21.10;nan
43312;BME280;30041;48.300;16.352;2023-12-20T07:59:25;99508.78;;;21.11;nan
43312;BME280;30041;48.300;16.352;2023-12-20T08:01:51;99515.25;;;21.10;nan
43312;BME280;30041;48.300;16.352;2023-12-20T08:04:19;99529.53;;;21.10;nan
43312;BME280;30041;48.300;16.352;2023-12-20T08:06:48;99517.69;;;21.11;nan
43312;BME280;30041;48.300;16.352;2023-12-20T08:09:13;99534.66;;;21.12;nan
43312;BME280;30041;48.300;16.352;2023-12-20T08:11:39;99526.84;;;21.10;nan
43312;BME280;30041;48.300;16.352;2023-12-20T08:14:04;99526.56;;;21.12;nan
43312;BME280;30041;48.300;16.352;2023-12-20T08:16:30;99533.84;;;21.11;nan
43312;BME280;30041;48.300;16.352;2023-12-20T08:18:55;99536.53;;;21.11;nan
43312;BME280;30041;48.300;16.352;2023-12-20T08:21:21;99519.56;;;21.11;nan
43312;BME280;30041;48.300;16.352;2023-12-20T08:23:46;99530.91;;;21.13;nan
43312;BME280;30041;48.300;16.352;2023-12-20T08:26:18;99537.34;;;21.12;nan
43312;BME280;30041;48.300;16.352;2023-12-20T08:28:43;99544.63;;;21.11;nan
43312;BME280;30041;48.300;16.352;2023-12-20T08:31:13;99541.94;;;21.11;nan
43312;BME280;30041;48.300;16.352;2023-12-20T08:33:39;99538.19;;;21.12;nan
43312;BME280;30041;48.300;16.352;2023-12-20T08:36:05;99544.41;;;21.13;nan
43312;BME280;30041;48.300;16.352;2023-12-20T08:38:31;99543.59;;;21.12;nan
43312;BME280;30041;48.300;16.352;2023-12-20T08:40:56;99541.69;;;21.13;nan
43312;BME280;30041;48.300;16.352;2023-12-20T08:43:25;99541.69;;;21.13;nan
43312;BME280;30041;48.300;16.352;2023-12-20T08:45:50;99539.81;;;21.13;nan
43312;BME280;30041;48.300;16.352;2023-12-20T08:48:16;99548.97;;;21.12;nan
43312;BME280;30041;48.300;16.352;2023-12-20T08:50:41;99547.91;;;21.13;nan
43312;BME280;30041;48.300;16.352;2023-12-20T08:53:07;99543.31;;;21.14;nan
43312;BME280;30041;48.300;16.352;2023-12-20T08:55:32;99556.81;;;21.14;nan
43312;BME280;30041;48.300;16.352;2023-12-20T08:58:07;99560.56;;;21.13;nan
43312;BME280;30041;48.300;16.352;2023-12-20T09:00:33;99563.84;;;21.15;nan
43312;BME280;30041;48.300;16.352;2023-12-20T09:02:59;99560.56;;;21.13;nan
43312;BME280;30041;48.300;16.352;2023-12-20T09:05:25;99560.34;;;21.14;nan
43312;BME280;30041;48.300;16.352;2023-12-20T09:07:50;99563.03;;;21.14;nan
43312;BME280;30041;48.300;16.352;2023-12-20T09:10:16;99562.19;;;21.14;nan
43312;BME280;30041;48.300;16.352;2023-12-20T09:12:42;99571.34;;;21.13;nan
43312;BME280;30041;48.300;16.352;2023-12-20T09:15:08;99564.88;;;21.14;nan
43312;BME280;30041;48.300;16.352;2023-12-20T09:17:33;99563.03;;;21.14;nan
43312;BME280;30041;48.300;16.352;2023-12-20T09:20:02;99564.88;;;21.14;nan
43312;BME280;30041;48.300;16.352;2023-12-20T09:22:27;99562.19;;;21.14;nan
43312;BME280;30041;48.300;16.352;2023-12-20T09:24:53;99575.66;;;21.14;nan
43312;BME280;30041;48.300;16.352;2023-12-20T09:27:19;99574.63;;;21.15;nan
43312;BME280;30041;48.300;16.352;2023-12-20T09:29:44;99583.75;;;21.14;nan
43312;BME280;30041;48.300;16.352;2023-12-20T09:32:10;99580.00;;;21.15;nan
43312;BME280;30041;48.300;16.352;2023-12-20T09:34:35;99587.63;;;21.18;nan
43312;BME280;30041;48.300;16.352;2023-12-20T09:37:03;99588.09;;;21.15;nan
43312;BME280;30041;48.300;16.352;2023-12-20T09:39:28;99588.91;;;21.15;nan
43312;BME280;30041;48.300;16.352;2023-12-20T09:42:02;99574.84;;;21.13;nan
43312;BME280;30041;48.300;16.352;2023-12-20T09:44:28;99585.41;;;21.15;nan
43312;BME280;30041;48.300;16.352;2023-12-20T09:46:55;99582.13;;;21.13;nan
43312;BME280;30041;48.300;16.352;2023-12-20T09:49:21;99578.38;;;21.14;nan
43312;BME280;30041;48.300;16.352;2023-12-20T09:51:47;99565.97;;;21.13;nan
43312;BME280;30041;48.300;16.352;2023-12-20T09:54:14;99566.78;;;21.13;nan
43312;BME280;30041;48.300;16.352;2023-12-20T09:56:40;99564.44;;;21.17;nan
43312;BME280;30041;48.300;16.352;2023-12-20T09:59:06;99561.16;;;21.15;nan
43312;BME280;30041;48.300;16.352;2023-12-20T10:01:33;99560.09;;;21.16;nan
43312;BME280;30041;48.300;16.352;2023-12-20T10:04:00;99552.25;;;21.14;nan
43312;BME280;30041;48.300;16.352;2023-12-20T10:06:26;99546.03;;;21.14;nan
43312;BME280;30041;48.300;16.352;2023-12-20T10:08:52;99553.88;;;21.15;nan
43312;BME280;30041;48.300;16.352;2023-12-20T10:11:18;99535.00;;;21.15;nan
43312;BME280;30041;48.300;16.352;2023-12-20T10:13:47;99528.81;;;21.15;nan
43312;BME280;30041;48.300;16.352;2023-12-20T10:16:13;99526.94;;;21.15;nan
43312;BME280;30041;48.300;16.352;2023-12-20T10:18:39;99533.13;;;21.16;nan
43312;BME280;30041;48.300;16.352;2023-12-20T10:21:04;99525.88;;;21.17;nan
43312;BME280;30041;48.300;16.352;2023-12-20T10:23:31;99520.50;;;21.17;nan
43312;BME280;30041;48.300;16.352;2023-12-20T10:25:58;99516.72;;;21.18;nan
43312;BME280;30041;48.300;16.352;2023-12-20T10:28:23;99517.81;;;21.17;nan
43312;BME280;30041;48.300;16.352;2023-12-20T10:30:49;99524.22;;;21.15;nan
43312;BME280;30041;48.300;16.352;2023-12-20T10:33:23;99510.75;;;21.15;nan
43312;BME280;30041;48.300;16.352;2023-12-20T10:35:49;99527.75;;;21.16;nan
43312;BME280;30041;48.300;16.352;2023-12-20T10:38:15;99517.81;;;21.17;nan
43312;BME280;30041;48.300;16.352;2023-12-20T10:40:42;99516.16;;;21.15;nan
43312;BME280;30041;48.300;16.352;2023-12-20T10:43:08;99508.28;;;21.14;nan
43312;BME280;30041;48.300;16.352;2023-12-20T10:45:34;99513.44;;;21.15;nan
43312;BME280;30041;48.300;16.352;2023-12-20T10:48:01;99497.06;;;21.17;nan
43312;BME280;30041;48.300;16.352;2023-12-20T10:50:27;99508.88;;;21.16;nan
43312;BME280;30041;48.300;16.352;2023-12-20T10:52:54;99507.03;;;21.17;nan
43312;BME280;30041;48.300;16.352;2023-12-20T10:55:20;99491.91;;;21.15;nan
43312;BME280;30041;48.300;16.352;2023-12-20T10:57:46;99492.72;;;21.16;nan
43312;BME280;30041;48.300;16.352;2023-12-20T11:00:17;99496.47;;;21.15;nan
43312;BME280;30041;48.300;16.352;2023-12-20T11:02:43;99484.63;;;21.16;nan
43312;BME280;30041;48.300;16.352;2023-12-20T11:07:56;99480.31;;;21.15;nan
43312;BME280;30041;48.300;16.352;2023-12-20T11:10:29;99483.81;;;21.15;nan
43312;BME280;30041;48.300;16.352;2023-12-20T11:16:22;99474.09;;;21.14;nan
43312;BME280;30041;48.300;16.352;2023-12-20T11:18:50;99488.38;;;21.15;nan
43312;BME280;30041;48.300;16.352;2023-12-20T11:21:16;99485.69;;;21.15;nan
43312;BME280;30041;48.300;16.352;2023-12-20T11:23:42;99495.41;;;21.16;nan
43312;BME280;30041;48.300;16.352;2023-12-20T11:26:08;99488.97;;;21.17;nan
43312;BME280;30041;48.300;16.352;2023-12-20T11:28:33;99478.19;;;21.17;nan
43312;BME280;30041;48.300;16.352;2023-12-20T11:31:01;99490.00;;;21.16;nan
43312;BME280;30041;48.300;16.352;2023-12-20T11:33:37;99478.19;;;21.17;nan
43312;BME280;30041;48.300;16.352;2023-12-20T11:36:03;99488.97;;;21.17;nan
43312;BME280;30041;48.300;16.352;2023-12-20T11:38:53;99467.66;;;21.15;nan
43312;BME280;30041;48.300;16.352;2023-12-20T11:41:22;99475.50;;;21.17;nan
43312;BME280;30041;48.300;16.352;2023-12-20T11:43:48;99473.03;;;21.15;nan
43312;BME280;30041;48.300;16.352;2023-12-20T11:46:13;99463.06;;;21.16;nan
43312;BME280;30041;48.300;16.352;2023-12-20T11:48:39;99481.69;;;21.18;nan
43312;BME280;30041;48.300;16.352;2023-12-20T11:51:11;99476.53;;;21.16;nan
43312;BME280;30041;48.300;16.352;2023-12-20T11:53:37;99475.22;;;21.19;nan
43312;BME280;30041;48.300;16.352;2023-12-20T11:56:05;99467.41;;;21.17;nan
43312;BME280;30041;48.300;16.352;2023-12-20T11:58:32;99463.66;;;21.18;nan
43312;BME280;30041;48.300;16.352;2023-12-20T12:00:58;99463.66;;;21.18;nan
43312;BME280;30041;48.300;16.352;2023-12-20T12:03:23;99445.84;;;21.17;nan
43312;BME280;30041;48.300;16.352;2023-12-20T12:05:49;99452.06;;;21.18;nan
43312;BME280;30041;48.300;16.352;2023-12-20T12:08:15;99448.53;;;21.17;nan
43312;BME280;30041;48.300;16.352;2023-12-20T12:10:43;99451.25;;;21.17;nan
43312;BME280;30041;48.300;16.352;2023-12-20T12:13:09;99451.25;;;21.17;nan
43312;BME280;30041;48.300;16.352;2023-12-20T12:15:36;99451.81;;;21.19;nan
43312;BME280;30041;48.300;16.352;2023-12-20T12:18:01;99434.00;;;21.18;nan
43312;BME280;30041;48.300;16.352;2023-12-20T12:20:30;99432.38;;;21.17;nan
43312;BME280;30041;48.300;16.352;2023-12-20T12:23:08;99441.50;;;21.16;nan
43312;BME280;30041;48.300;16.352;2023-12-20T12:25:35;99435.06;;;21.17;nan
43312;BME280;30041;48.300;16.352;2023-12-20T12:28:01;99429.41;;;21.19;nan
43312;BME280;30041;48.300;16.352;2023-12-20T12:30:30;99443.16;;;21.17;nan
43312;BME280;30041;48.300;16.352;2023-12-20T12:32:56;99437.50;;;21.19;nan
43312;BME280;30041;48.300;16.352;2023-12-20T12:35:22;99441.03;;;21.19;nan
43312;BME280;30041;48.300;16.352;2023-12-20T12:37:48;99433.41;;;21.16;nan
43312;BME280;30041;48.300;16.352;2023-12-20T12:40:17;99422.63;;;21.16;nan
43312;BME280;30041;48.300;16.352;2023-12-20T12:42:44;99425.34;;;21.16;nan
43312;BME280;30041;48.300;16.352;2023-12-20T12:45:10;99426.41;;;21.15;nan
43312;BME280;30041;48.300;16.352;2023-12-20T12:47:40;99419.38;;;21.14;nan
43312;BME280;30041;48.300;16.352;2023-12-20T12:50:06;99419.63;;;21.12;nan
43312;BME280;30041;48.300;16.352;2023-12-20T12:52:31;99418.78;;;21.12;nan
43312;BME280;30041;48.300;16.352;2023-12-20T12:55:00;99422.78;;;21.09;nan
43312;BME280;30041;48.300;16.352;2023-12-20T12:57:25;99426.31;;;21.10;nan
43312;BME280;30041;48.300;16.352;2023-12-20T12:59:51;99421.16;;;21.08;nan
43312;BME280;30041;48.300;16.352;2023-12-20T13:02:16;99429.25;;;21.08;nan
43312;BME280;30041;48.300;16.352;2023-12-20T13:04:42;99410.97;;;21.10;nan
43312;BME280;30041;48.300;16.352;2023-12-20T13:07:09;99400.66;;;21.07;nan
43312;BME280;30041;48.300;16.352;2023-12-20T13:09:35;99414.69;;;21.09;nan
43312;BME280;30041;48.300;16.352;2023-12-20T13:12:00;99417.41;;;21.09;nan